createdAt,value
2023-06-04T00:00:04.999Z,1021.55
2023-06-04T00:05:01.640Z,1021.53
2023-06-04T00:15:01.746Z,1021.47
2023-06-04T00:20:01.515Z,1021.47
2023-06-04T00:25:01.619Z,1021.45
2023-06-04T00:30:01.507Z,1021.45
2023-06-04T00:35:01.629Z,1021.56
2023-06-04T00:40:01.592Z,1021.56
2023-06-04T00:45:01.665Z,1021.47
2023-06-04T00:55:02.019Z,1021.46
2023-06-04T01:00:16.312Z,1021.46
2023-06-04T01:25:00.932Z,1021.46
2023-06-04T01:30:00.682Z,1021.46
2023-06-04T01:35:01.379Z,1021.42
2023-06-04T01:45:00.645Z,1021.39
2023-06-04T02:00:02.868Z,1021.47
2023-06-04T02:35:01.626Z,1021.57
2023-06-04T02:45:01.521Z,1021.60
2023-06-04T02:50:01.388Z,1021.60
2023-06-04T03:00:02.980Z,1021.69
2023-06-04T03:05:02.305Z,1021.67
2023-06-04T03:15:02.372Z,1021.70
2023-06-04T03:30:01.620Z,1021.75
2023-06-04T03:45:01.477Z,1021.73
2023-06-04T04:00:05.348Z,1021.70
2023-06-04T04:15:01.687Z,1021.76
2023-06-04T04:30:01.599Z,1021.70
2023-06-04T04:35:01.522Z,1021.75
2023-06-04T04:45:01.635Z,1021.79
2023-06-04T04:50:02.345Z,1021.79
2023-06-04T04:55:01.641Z,1021.90
2023-06-04T05:00:05.226Z,1021.90
2023-06-04T05:05:01.502Z,1021.69
2023-06-04T05:10:01.510Z,1021.69
2023-06-04T05:15:01.908Z,1021.62
2023-06-04T05:20:01.455Z,1021.62
2023-06-04T05:25:01.553Z,1021.63
2023-06-04T05:30:01.838Z,1021.63
2023-06-04T05:35:16.313Z,1021.67
2023-06-04T06:05:15.431Z,1021.45
2023-06-04T06:35:01.393Z,1021.39
2023-06-04T06:45:01.173Z,1021.33
2023-06-04T06:55:01.197Z,1021.29
2023-06-04T07:00:02.979Z,1021.29
2023-06-04T07:05:01.144Z,1021.37
2023-06-04T07:10:02.381Z,1021.37
2023-06-04T07:15:01.316Z,1021.42
2023-06-04T07:20:02.197Z,1021.42
2023-06-04T07:25:01.138Z,1021.46
2023-06-04T07:30:01.582Z,1021.46
2023-06-04T07:35:01.385Z,1021.41
2023-06-04T07:40:02.290Z,1021.41
2023-06-04T07:45:01.328Z,1021.56
2023-06-04T07:55:01.322Z,1021.52
2023-06-04T08:00:01.325Z,1021.52
2023-06-04T08:05:01.732Z,1021.49
2023-06-04T08:10:15.874Z,1021.49
2023-06-04T08:35:01.678Z,1021.57
2023-06-04T08:45:01.620Z,1021.53
2023-06-04T08:50:01.749Z,1021.53
2023-06-04T09:00:03.799Z,1021.62
2023-06-04T09:05:01.633Z,1021.56
2023-06-04T09:10:14.101Z,1021.56
2023-06-04T09:15:01.694Z,1021.50
2023-06-04T09:20:01.413Z,1021.50
2023-06-04T09:25:02.272Z,1021.48
2023-06-04T09:30:02.099Z,1021.48
2023-06-04T09:35:01.946Z,1021.47
2023-06-04T09:40:02.511Z,1021.47
2023-06-04T09:45:01.985Z,1021.40
2023-06-04T09:50:02.629Z,1021.40
2023-06-04T09:55:16.275Z,1021.42
2023-06-04T10:25:00.831Z,1021.44
2023-06-04T10:30:01.683Z,1021.44
2023-06-04T10:40:00.686Z,1021.42
2023-06-04T10:45:00.869Z,1021.37
2023-06-04T10:50:00.692Z,1021.37
2023-06-04T11:00:02.816Z,1021.51
2023-06-04T11:05:00.836Z,1021.48
2023-06-04T11:10:01.478Z,1021.48
2023-06-04T11:15:01.926Z,1021.60
2023-06-04T11:20:00.700Z,1021.60
2023-06-04T11:25:15.504Z,1021.55
2023-06-04T11:55:00.877Z,1021.56
2023-06-04T12:00:02.951Z,1021.56
2023-06-04T12:05:00.846Z,1021.42
2023-06-04T12:15:00.928Z,1021.51
2023-06-04T12:25:00.796Z,1021.59
2023-06-04T12:30:01.667Z,1021.59
2023-06-04T12:35:01.553Z,1021.56
2023-06-04T12:40:00.717Z,1021.56
2023-06-04T12:45:02.007Z,1021.67
2023-06-04T12:55:00.818Z,1021.68
2023-06-04T13:00:00.850Z,1021.68
2023-06-04T13:05:01.807Z,1021.67
2023-06-04T13:15:15.485Z,1021.65
2023-06-04T13:45:01.842Z,1021.58
2023-06-04T13:55:00.995Z,1021.46
2023-06-04T14:00:15.932Z,1021.46
2023-06-04T14:25:01.637Z,1021.27
2023-06-04T14:30:02.700Z,1021.27
2023-06-04T14:35:01.663Z,1021.21
2023-06-04T14:40:01.479Z,1021.21
2023-06-04T14:45:02.514Z,1021.24
2023-06-04T14:55:01.637Z,1021.11
2023-06-04T15:00:16.254Z,1021.11
2023-06-04T15:25:01.518Z,1020.94
2023-06-04T15:30:01.420Z,1020.94
2023-06-04T15:35:01.529Z,1020.88
2023-06-04T15:40:02.595Z,1020.88
2023-06-04T15:45:01.457Z,1020.90
2023-06-04T15:50:01.323Z,1020.90
2023-06-04T15:55:02.541Z,1020.83
2023-06-04T16:00:02.889Z,1020.83
2023-06-04T16:15:01.854Z,1020.72
2023-06-04T16:20:01.509Z,1020.72
2023-06-04T16:25:01.520Z,1020.66
2023-06-04T16:30:01.444Z,1020.66
2023-06-04T16:35:16.201Z,1020.57
2023-06-04T17:05:23.593Z,1020.60
2023-06-04T17:15:01.517Z,1020.62
2023-06-04T17:25:02.276Z,1020.51
2023-06-04T17:30:01.577Z,1020.51
2023-06-04T17:35:01.431Z,1020.58
2023-06-04T17:45:02.600Z,1020.56
2023-06-04T17:50:01.654Z,1020.56
2023-06-04T17:55:01.557Z,1020.51
2023-06-04T18:00:03.178Z,1020.51
2023-06-04T18:05:01.564Z,1020.59
2023-06-04T18:10:02.602Z,1020.59
2023-06-04T18:15:01.498Z,1020.58
2023-06-04T18:20:01.518Z,1020.58
2023-06-04T18:25:02.549Z,1020.73
2023-06-04T18:30:02.673Z,1020.73
2023-06-04T18:35:01.512Z,1020.84
2023-06-04T18:40:02.612Z,1020.84
2023-06-04T18:45:01.566Z,1020.80
2023-06-04T18:50:01.847Z,1020.80
2023-06-04T18:55:01.566Z,1020.82
2023-06-04T19:00:04.301Z,1020.82
2023-06-04T19:05:01.450Z,1020.90
2023-06-04T19:10:01.928Z,1020.90
2023-06-04T19:15:01.739Z,1020.97
2023-06-04T19:20:16.314Z,1020.97
2023-06-04T19:45:02.137Z,1021.12
2023-06-04T19:55:02.204Z,1021.18
2023-06-04T20:00:15.941Z,1021.18
2023-06-04T20:25:00.993Z,1021.48
2023-06-04T20:30:00.872Z,1021.48
2023-06-04T20:35:00.918Z,1021.50
2023-06-04T20:40:00.870Z,1021.50
2023-06-04T20:45:00.891Z,1021.61
2023-06-04T20:50:02.442Z,1021.61
2023-06-04T20:55:00.974Z,1021.72
2023-06-04T21:00:04.510Z,1021.72
2023-06-04T21:05:01.812Z,1021.75
2023-06-04T21:10:00.839Z,1021.75
2023-06-04T21:15:00.914Z,1021.78
2023-06-04T21:25:01.935Z,1021.79
2023-06-04T21:30:01.060Z,1021.79
2023-06-04T21:35:01.883Z,1021.92
2023-06-04T21:40:00.864Z,1021.92
2023-06-04T21:45:01.426Z,1021.95
2023-06-04T21:50:00.875Z,1021.95
2023-06-04T21:55:15.662Z,1022.01
2023-06-04T22:25:02.537Z,1021.96
2023-06-04T22:30:03.590Z,1021.96
2023-06-04T22:35:02.274Z,1022.05
2023-06-04T22:45:01.313Z,1021.97
2023-06-04T22:50:01.363Z,1021.97
2023-06-04T22:55:02.162Z,1022.05
2023-06-04T23:00:15.976Z,1022.05
2023-06-04T23:25:15.776Z,1022.19
2023-06-04T23:30:15.685Z,1022.19
2023-06-04T23:55:02.702Z,1022.24
